createdAt,value
2022-10-17T00:00:48.524Z,14.19
2022-10-17T00:03:15.339Z,14.17
2022-10-17T00:05:44.330Z,14.14
2022-10-17T00:08:12.271Z,14.13
2022-10-17T00:10:39.680Z,14.12
2022-10-17T00:13:07.921Z,14.11
2022-10-17T00:15:34.677Z,14.11
2022-10-17T00:18:01.615Z,14.10
2022-10-17T00:20:30.425Z,14.09
2022-10-17T00:22:57.423Z,14.03
2022-10-17T00:25:24.304Z,14.02
2022-10-17T00:27:51.027Z,13.99
2022-10-17T00:30:17.917Z,13.97
2022-10-17T00:32:45.018Z,13.95
2022-10-17T00:35:11.791Z,13.94
2022-10-17T00:37:38.670Z,13.93
2022-10-17T00:40:06.880Z,13.90
2022-10-17T00:42:33.646Z,13.90
2022-10-17T00:45:05.771Z,13.89
2022-10-17T00:47:33.626Z,13.87
2022-10-17T00:52:34.090Z,13.83
2022-10-17T00:55:10.772Z,13.81
2022-10-17T00:57:39.043Z,13.79
2022-10-17T01:00:09.810Z,13.79
2022-10-17T01:02:37.068Z,13.76
2022-10-17T01:05:04.722Z,13.75
2022-10-17T01:07:34.917Z,13.75
2022-10-17T01:10:05.602Z,13.74
2022-10-17T01:12:35.045Z,13.73
2022-10-17T01:15:04.546Z,13.71
2022-10-17T01:17:49.860Z,13.67
2022-10-17T01:20:22.381Z,13.64
2022-10-17T01:23:28.752Z,13.64
2022-10-17T01:26:13.616Z,13.60
2022-10-17T01:28:58.893Z,13.57
2022-10-17T01:31:35.530Z,13.56
2022-10-17T01:34:32.243Z,13.55
2022-10-17T01:37:23.761Z,13.55
2022-10-17T01:39:55.035Z,13.54
2022-10-17T01:42:27.569Z,13.51
2022-10-17T01:45:14.202Z,13.51
2022-10-17T01:47:42.674Z,13.48
2022-10-17T01:50:18.429Z,13.54
2022-10-17T01:52:51.065Z,13.54
2022-10-17T01:55:23.782Z,13.55
2022-10-17T01:58:04.582Z,13.55
2022-10-17T02:00:32.709Z,13.56
2022-10-17T02:03:04.711Z,13.55
2022-10-17T02:05:36.827Z,13.55
2022-10-17T02:08:04.108Z,13.56
2022-10-17T02:10:43.013Z,13.56
2022-10-17T02:13:31.505Z,13.54
2022-10-17T02:16:12.268Z,13.55
2022-10-17T02:18:47.783Z,13.54
2022-10-17T02:21:23.009Z,13.55
2022-10-17T02:24:04.852Z,13.53
2022-10-17T02:26:44.650Z,13.53
2022-10-17T02:29:19.486Z,13.52
2022-10-17T02:31:59.300Z,13.49
2022-10-17T02:34:49.317Z,13.46
2022-10-17T02:37:20.137Z,13.48
2022-10-17T02:39:48.469Z,13.44
2022-10-17T02:42:16.213Z,13.41
2022-10-17T02:44:45.091Z,13.41
2022-10-17T02:47:20.275Z,13.41
2022-10-17T02:49:52.652Z,13.40
2022-10-17T02:52:26.464Z,13.39
2022-10-17T02:55:10.892Z,13.36
2022-10-17T02:57:41.803Z,13.36
2022-10-17T03:00:12.360Z,13.36
2022-10-17T03:02:45.561Z,13.34
2022-10-17T03:05:15.005Z,13.35
2022-10-17T03:07:41.780Z,13.33
2022-10-17T03:10:08.619Z,13.32
2022-10-17T03:12:35.347Z,13.30
2022-10-17T03:15:02.501Z,13.29
2022-10-17T03:17:29.218Z,13.27
2022-10-17T03:19:55.973Z,13.29
2022-10-17T03:22:22.745Z,13.28
2022-10-17T03:24:49.475Z,13.27
2022-10-17T03:27:16.278Z,13.26
2022-10-17T03:29:43.014Z,13.26
2022-10-17T03:32:09.776Z,13.23
2022-10-17T03:34:36.512Z,13.24
2022-10-17T03:37:03.369Z,13.24
2022-10-17T03:39:30.110Z,13.20
2022-10-17T03:41:56.884Z,13.22
2022-10-17T03:44:23.682Z,13.22
2022-10-17T03:46:50.464Z,13.20
2022-10-17T03:49:17.224Z,13.19
2022-10-17T03:51:43.916Z,13.23
2022-10-17T03:54:10.658Z,13.25
2022-10-17T03:56:37.395Z,13.23
2022-10-17T03:59:04.160Z,13.21
2022-10-17T04:01:31.019Z,13.23
2022-10-17T04:03:58.047Z,13.21
2022-10-17T04:06:24.963Z,13.18
2022-10-17T04:08:51.712Z,13.19
2022-10-17T04:11:20.736Z,13.19
2022-10-17T04:13:48.553Z,13.19
2022-10-17T04:16:16.999Z,13.19
2022-10-17T04:18:43.914Z,13.18
2022-10-17T04:21:11.775Z,13.18
2022-10-17T04:23:39.411Z,13.18
2022-10-17T04:26:07.104Z,13.17
2022-10-17T04:28:34.478Z,13.17
2022-10-17T04:31:07.095Z,13.19
2022-10-17T04:33:34.562Z,13.18
2022-10-17T04:36:03.886Z,13.19
2022-10-17T04:38:31.021Z,13.18
2022-10-17T04:41:03.343Z,13.18
2022-10-17T04:43:31.284Z,13.19
2022-10-17T04:46:02.465Z,13.18
2022-10-17T04:48:30.400Z,13.17
2022-10-17T04:51:05.874Z,13.17
2022-10-17T04:53:34.823Z,13.18
2022-10-17T04:56:02.104Z,13.19
2022-10-17T04:58:30.309Z,13.19
2022-10-17T05:00:57.180Z,13.18
2022-10-17T05:03:24.001Z,13.18
2022-10-17T05:05:50.725Z,13.19
2022-10-17T05:08:17.465Z,13.18
2022-10-17T05:10:46.229Z,13.18
2022-10-17T05:13:13.433Z,13.17
2022-10-17T05:15:40.248Z,13.17
2022-10-17T05:18:07.386Z,13.15
2022-10-17T05:20:34.374Z,13.14
2022-10-17T05:23:01.367Z,13.15
2022-10-17T05:25:28.226Z,13.15
2022-10-17T05:27:54.987Z,13.17
2022-10-17T05:30:21.842Z,13.18
2022-10-17T05:32:48.646Z,13.19
2022-10-17T05:35:15.409Z,13.20
2022-10-17T05:37:42.114Z,13.19
2022-10-17T05:40:09.411Z,13.20
2022-10-17T05:42:36.216Z,13.19
2022-10-17T05:45:03.950Z,13.21
2022-10-17T05:47:31.239Z,13.21
2022-10-17T05:49:58.210Z,13.22
2022-10-17T05:52:25.143Z,13.23
2022-10-17T05:54:51.909Z,13.23
2022-10-17T05:57:18.704Z,13.25
2022-10-17T05:59:45.426Z,13.24
2022-10-17T06:02:15.366Z,13.25
2022-10-17T06:04:45.653Z,13.27
2022-10-17T06:07:13.093Z,13.29
2022-10-17T06:09:40.334Z,13.29
2022-10-17T06:12:08.014Z,13.31
2022-10-17T06:14:35.223Z,13.35
2022-10-17T06:17:02.080Z,13.34
2022-10-17T06:19:28.847Z,13.35
2022-10-17T06:21:55.690Z,13.38
2022-10-17T06:24:22.507Z,13.39
2022-10-17T06:26:50.002Z,13.43
2022-10-17T06:29:17.158Z,13.44
2022-10-17T06:31:44.133Z,13.46
2022-10-17T06:34:11.138Z,13.47
2022-10-17T06:36:37.913Z,13.49
2022-10-17T06:39:04.763Z,13.52
2022-10-17T06:41:31.494Z,13.54
2022-10-17T06:43:58.304Z,13.57
2022-10-17T06:46:26.920Z,13.58
2022-10-17T06:48:53.648Z,13.60
2022-10-17T06:51:20.362Z,13.61
2022-10-17T06:53:47.318Z,13.64
2022-10-17T06:56:14.117Z,13.66
2022-10-17T06:58:41.674Z,13.68
2022-10-17T07:01:13.458Z,13.71
2022-10-17T07:03:41.211Z,13.74
2022-10-17T07:06:08.326Z,13.77
2022-10-17T07:08:35.061Z,13.78
2022-10-17T07:11:10.249Z,13.80
2022-10-17T07:13:39.321Z,13.85
2022-10-17T07:16:06.883Z,13.88
2022-10-17T07:18:33.779Z,13.90
2022-10-17T07:21:01.267Z,13.94
2022-10-17T07:23:28.114Z,13.96
2022-10-17T07:26:03.541Z,13.98
2022-10-17T07:28:30.375Z,14.00
2022-10-17T07:31:03.775Z,14.03
2022-10-17T07:33:30.704Z,14.06
2022-10-17T07:35:59.862Z,14.08
2022-10-17T07:38:27.945Z,14.09
2022-10-17T07:40:56.234Z,14.13
2022-10-17T07:43:24.484Z,14.16
2022-10-17T07:45:51.893Z,14.17
2022-10-17T07:48:19.810Z,14.21
2022-10-17T07:50:46.609Z,14.22
2022-10-17T07:53:13.718Z,14.26
2022-10-17T07:55:42.003Z,14.32
2022-10-17T07:58:09.798Z,14.35
2022-10-17T08:00:37.376Z,14.34
2022-10-17T08:03:04.840Z,14.37
2022-10-17T08:05:32.117Z,14.41
2022-10-17T08:07:59.021Z,14.43
2022-10-17T08:10:29.923Z,14.47
2022-10-17T08:12:58.086Z,14.50
2022-10-17T08:15:29.405Z,14.53
2022-10-17T08:17:58.770Z,14.55
2022-10-17T08:20:25.608Z,14.58
2022-10-17T08:22:55.853Z,14.61
2022-10-17T08:25:23.628Z,14.63
2022-10-17T08:27:50.609Z,14.65
2022-10-17T08:30:17.675Z,14.69
2022-10-17T08:32:44.479Z,14.73
2022-10-17T08:35:11.278Z,14.80
2022-10-17T08:37:38.015Z,14.83
2022-10-17T08:40:05.246Z,14.86
2022-10-17T08:42:55.703Z,14.91
2022-10-17T08:45:49.041Z,14.93
2022-10-17T08:48:23.472Z,14.99
2022-10-17T08:51:05.181Z,15.04
2022-10-17T08:54:00.821Z,15.09
2022-10-17T08:56:47.965Z,15.15
2022-10-17T08:59:27.525Z,15.19
2022-10-17T09:02:03.717Z,15.23
2022-10-17T09:04:52.878Z,15.28
2022-10-17T09:07:33.030Z,15.33
2022-10-17T09:10:07.894Z,15.40
2022-10-17T09:12:45.709Z,15.48
2022-10-17T09:15:21.559Z,15.52
2022-10-17T09:17:56.211Z,15.56
2022-10-17T09:20:26.586Z,15.57
2022-10-17T09:23:16.219Z,15.62
2022-10-17T09:25:50.529Z,15.65
2022-10-17T09:28:22.169Z,15.72
2022-10-17T09:31:13.145Z,15.75
2022-10-17T09:33:53.989Z,15.86
2022-10-17T09:36:33.676Z,15.92
2022-10-17T09:39:05.177Z,15.96
2022-10-17T09:41:46.882Z,16.03
2022-10-17T09:44:16.345Z,16.15
2022-10-17T09:46:56.472Z,16.22
2022-10-17T09:49:32.796Z,16.25
2022-10-17T09:52:01.915Z,16.29
2022-10-17T09:54:39.823Z,16.33
2022-10-17T09:57:09.401Z,16.38
2022-10-17T09:59:38.684Z,16.41
2022-10-17T10:02:25.691Z,16.46
2022-10-17T10:05:03.756Z,16.54
2022-10-17T10:07:34.507Z,16.60
2022-10-17T10:10:03.297Z,16.66
2022-10-17T10:12:35.903Z,16.72
2022-10-17T10:15:03.209Z,16.77
2022-10-17T10:17:44.279Z,16.85
2022-10-17T10:20:31.901Z,16.93
2022-10-17T10:23:22.199Z,16.97
2022-10-17T10:25:58.520Z,17.03
2022-10-17T10:28:29.675Z,17.08
2022-10-17T10:31:00.021Z,17.10
2022-10-17T10:33:29.860Z,17.13
2022-10-17T10:36:03.513Z,17.18
2022-10-17T10:38:33.082Z,17.21
2022-10-17T10:41:11.485Z,17.25
2022-10-17T10:43:42.362Z,17.32
2022-10-17T10:46:23.029Z,17.35
2022-10-17T10:48:54.125Z,17.38
2022-10-17T10:51:32.162Z,17.41
2022-10-17T10:54:22.112Z,17.44
2022-10-17T10:56:58.186Z,17.48
2022-10-17T10:59:35.599Z,17.52
2022-10-17T11:02:22.504Z,17.56
2022-10-17T11:05:05.197Z,17.60
2022-10-17T11:08:14.335Z,17.64
2022-10-17T11:11:09.260Z,17.69
2022-10-17T11:14:12.972Z,17.73
2022-10-17T11:16:58.022Z,17.80
2022-10-17T11:19:34.016Z,17.86
2022-10-17T11:22:26.652Z,17.90
2022-10-17T11:25:28.243Z,17.94
2022-10-17T11:27:55.017Z,17.97
2022-10-17T11:30:24.721Z,18.00
2022-10-17T11:33:01.340Z,18.05
2022-10-17T11:35:33.612Z,18.09
2022-10-17T11:38:27.779Z,18.15
2022-10-17T11:40:58.948Z,18.21
2022-10-17T11:43:36.207Z,18.25
2022-10-17T11:46:15.585Z,18.29
2022-10-17T11:48:51.166Z,18.31
2022-10-17T11:54:15.095Z,18.38
2022-10-17T11:57:10.736Z,18.42
2022-10-17T11:59:53.027Z,18.46
2022-10-17T12:02:32.429Z,18.51
2022-10-17T12:05:24.434Z,18.56
2022-10-17T12:08:00.269Z,18.59
2022-10-17T12:10:51.177Z,18.61
2022-10-17T12:13:30.458Z,18.65
2022-10-17T12:16:20.256Z,18.70
2022-10-17T12:18:49.385Z,18.73
2022-10-17T12:21:16.330Z,18.77
2022-10-17T12:23:52.560Z,18.82
2022-10-17T12:26:27.931Z,18.88
2022-10-17T12:28:55.587Z,18.95
2022-10-17T12:31:33.401Z,18.98
2022-10-17T12:34:05.113Z,19.05
2022-10-17T12:36:31.924Z,19.05
2022-10-17T12:39:01.382Z,19.06
2022-10-17T12:41:40.222Z,19.07
2022-10-17T12:44:13.131Z,19.08
2022-10-17T12:46:49.423Z,19.14
2022-10-17T12:49:23.938Z,19.16
2022-10-17T12:52:15.841Z,19.18
2022-10-17T12:54:48.123Z,19.20
2022-10-17T12:57:41.462Z,19.22
2022-10-17T13:00:20.794Z,19.23
2022-10-17T13:02:49.911Z,19.26
2022-10-17T13:05:32.803Z,19.30
2022-10-17T13:08:02.309Z,19.33
2022-10-17T13:10:32.239Z,19.36
2022-10-17T13:13:20.170Z,19.37
2022-10-17T13:15:52.490Z,19.41
2022-10-17T13:18:22.958Z,19.46
2022-10-17T13:20:57.346Z,19.50
2022-10-17T13:23:25.596Z,19.52
2022-10-17T13:26:10.710Z,19.52
2022-10-17T13:28:39.580Z,19.54
2022-10-17T13:31:07.582Z,19.53
2022-10-17T13:33:40.256Z,19.51
2022-10-17T13:36:13.710Z,19.52
2022-10-17T13:38:42.662Z,19.52
2022-10-17T13:41:34.896Z,19.53
2022-10-17T13:44:04.109Z,19.55
2022-10-17T13:46:38.083Z,19.57
2022-10-17T13:49:19.067Z,19.57
2022-10-17T13:51:49.102Z,19.58
2022-10-17T13:54:43.342Z,19.60
2022-10-17T13:57:31.414Z,19.60
2022-10-17T14:00:01.335Z,19.61
2022-10-17T14:02:31.027Z,19.62
2022-10-17T14:05:18.132Z,19.63
2022-10-17T14:10:39.539Z,19.67
2022-10-17T14:13:08.413Z,19.69
2022-10-17T14:15:37.063Z,19.70
2022-10-17T14:18:08.547Z,19.72
2022-10-17T14:21:28.816Z,19.72
2022-10-17T14:23:41.651Z,19.75
2022-10-17T14:26:28.638Z,19.78
2022-10-17T14:29:23.451Z,19.77
2022-10-17T14:31:53.650Z,19.80
2022-10-17T14:34:27.770Z,19.82
2022-10-17T14:36:55.491Z,19.83
2022-10-17T14:39:24.460Z,19.85
2022-10-17T14:41:52.415Z,19.86
2022-10-17T14:44:41.993Z,19.85
2022-10-17T14:47:42.284Z,19.85
2022-10-17T14:50:12.038Z,19.85
2022-10-17T14:52:39.114Z,19.85
2022-10-17T14:55:27.236Z,19.84
2022-10-17T14:57:54.457Z,19.84
2022-10-17T15:00:23.317Z,19.83
2022-10-17T15:02:51.595Z,19.82
2022-10-17T15:05:20.277Z,19.82
2022-10-17T15:07:47.255Z,19.81
2022-10-17T15:10:34.314Z,19.81
2022-10-17T15:15:52.046Z,19.79
2022-10-17T15:18:19.359Z,19.80
2022-10-17T15:20:46.143Z,19.78
2022-10-17T15:23:12.932Z,19.77
2022-10-17T15:25:39.836Z,19.76
2022-10-17T15:28:06.686Z,19.74
2022-10-17T15:30:36.562Z,19.74
2022-10-17T15:33:03.586Z,19.73
2022-10-17T15:35:30.943Z,19.72
2022-10-17T15:37:57.855Z,19.70
2022-10-17T15:40:29.404Z,19.69
2022-10-17T15:42:56.731Z,19.68
2022-10-17T15:45:24.276Z,19.64
2022-10-17T15:47:57.266Z,19.63
2022-10-17T15:50:24.061Z,19.61
2022-10-17T15:52:51.127Z,19.58
2022-10-17T15:55:18.417Z,19.54
2022-10-17T15:57:47.313Z,19.49
2022-10-17T16:00:23.294Z,19.47
2022-10-17T16:02:50.901Z,19.42
2022-10-17T16:05:23.794Z,19.38
2022-10-17T16:07:50.795Z,19.31
2022-10-17T16:10:17.935Z,19.25
2022-10-17T16:12:45.729Z,19.20
2022-10-17T16:15:16.696Z,19.17
2022-10-17T16:17:44.336Z,19.11
2022-10-17T16:20:13.030Z,19.07
2022-10-17T16:22:42.251Z,19.00
2022-10-17T16:25:22.565Z,18.97
2022-10-17T16:27:52.322Z,18.90
2022-10-17T16:30:20.227Z,18.88
2022-10-17T16:32:47.776Z,18.83
2022-10-17T16:35:18.659Z,18.78
2022-10-17T16:37:45.472Z,18.72
2022-10-17T16:40:12.383Z,18.69
2022-10-17T16:42:39.123Z,18.65
2022-10-17T16:45:06.546Z,18.59
2022-10-17T16:47:33.358Z,18.54
2022-10-17T16:50:00.213Z,18.48
2022-10-17T16:52:27.229Z,18.45
2022-10-17T16:54:54.084Z,18.39
2022-10-17T16:57:20.838Z,18.35
2022-10-17T16:59:47.625Z,18.31
2022-10-17T17:02:17.556Z,18.26
2022-10-17T17:04:47.564Z,18.21
2022-10-17T17:07:14.471Z,18.14
2022-10-17T17:09:41.426Z,18.10
2022-10-17T17:12:08.869Z,18.04
2022-10-17T17:14:36.119Z,17.99
2022-10-17T17:17:03.713Z,17.94
2022-10-17T17:19:31.131Z,17.89
2022-10-17T17:21:58.684Z,17.86
2022-10-17T17:24:26.159Z,17.83
2022-10-17T17:26:55.670Z,17.79
2022-10-17T17:29:25.064Z,17.75
2022-10-17T17:31:52.838Z,17.68
2022-10-17T17:34:20.251Z,17.66
2022-10-17T17:36:49.127Z,17.64
2022-10-17T17:39:17.052Z,17.60
2022-10-17T17:41:46.069Z,17.57
2022-10-17T17:44:16.708Z,17.53
2022-10-17T17:46:45.157Z,17.49
2022-10-17T17:49:12.987Z,17.46
2022-10-17T17:51:41.654Z,17.42
2022-10-17T17:54:11.812Z,17.39
2022-10-17T17:56:39.681Z,17.37
2022-10-17T17:59:07.770Z,17.34
2022-10-17T18:01:39.683Z,17.30
2022-10-17T18:04:09.136Z,17.29
2022-10-17T18:06:38.217Z,17.23
2022-10-17T18:09:06.922Z,17.22
2022-10-17T18:11:34.754Z,17.16
2022-10-17T18:14:08.322Z,17.11
2022-10-17T18:16:37.650Z,17.11
2022-10-17T18:19:09.179Z,17.05
2022-10-17T18:21:37.640Z,16.99
2022-10-17T18:24:06.209Z,16.98
2022-10-17T18:26:34.376Z,16.95
2022-10-17T18:29:03.287Z,16.92
2022-10-17T18:31:36.329Z,16.92
2022-10-17T18:34:05.552Z,16.85
2022-10-17T18:36:35.498Z,16.84
2022-10-17T18:39:03.328Z,16.79
2022-10-17T18:41:31.440Z,16.76
2022-10-17T18:43:58.798Z,16.72
2022-10-17T18:46:32.811Z,16.72
2022-10-17T18:49:01.597Z,16.68
2022-10-17T18:51:29.355Z,16.67
2022-10-17T18:53:59.456Z,16.64
2022-10-17T18:56:27.373Z,16.63
2022-10-17T18:58:55.294Z,16.62
2022-10-17T19:01:26.339Z,16.55
2022-10-17T19:03:56.665Z,16.54
2022-10-17T19:06:28.907Z,16.50
2022-10-17T19:08:56.049Z,16.50
2022-10-17T19:11:25.913Z,16.43
2022-10-17T19:13:53.890Z,16.47
2022-10-17T19:16:23.832Z,16.45
2022-10-17T19:18:52.717Z,16.42
2022-10-17T19:21:21.967Z,16.38
2022-10-17T19:23:55.488Z,16.37
2022-10-17T19:26:23.531Z,16.34
2022-10-17T19:28:53.520Z,16.33
2022-10-17T19:31:26.498Z,16.30
2022-10-17T19:33:55.652Z,16.32
2022-10-17T19:36:28.882Z,16.28
2022-10-17T19:39:00.526Z,16.26
2022-10-17T19:41:28.160Z,16.22
2022-10-17T19:43:55.370Z,16.22
2022-10-17T19:46:24.294Z,16.19
2022-10-17T19:48:52.064Z,16.15
2022-10-17T19:51:21.004Z,16.14
2022-10-17T19:53:48.064Z,16.12
2022-10-17T19:56:18.641Z,16.12
2022-10-17T19:58:46.740Z,16.11
2022-10-17T20:01:35.412Z,16.08
2022-10-17T20:04:03.453Z,16.07
2022-10-17T20:06:30.674Z,16.02
2022-10-17T20:08:57.730Z,15.98
2022-10-17T20:11:27.545Z,16.01
2022-10-17T20:13:56.134Z,16.00
2022-10-17T20:16:25.753Z,15.97
2022-10-17T20:18:55.293Z,15.94
2022-10-17T20:21:31.668Z,15.93
2022-10-17T20:23:59.946Z,15.94
2022-10-17T20:26:43.102Z,15.92
2022-10-17T20:29:20.126Z,15.90
2022-10-17T20:31:48.100Z,15.87
2022-10-17T20:34:17.076Z,15.88
2022-10-17T20:36:44.139Z,15.88
2022-10-17T20:39:12.840Z,15.86
2022-10-17T20:41:40.350Z,15.85
2022-10-17T20:44:07.642Z,15.82
2022-10-17T20:46:37.638Z,15.79
2022-10-17T20:49:07.331Z,15.78
2022-10-17T20:51:34.811Z,15.76
2022-10-17T20:54:02.807Z,15.76
2022-10-17T20:56:31.399Z,15.75
2022-10-17T20:59:04.414Z,15.73
2022-10-17T21:01:33.323Z,15.71
2022-10-17T21:04:15.837Z,15.70
2022-10-17T21:06:51.975Z,15.66
2022-10-17T21:09:19.180Z,15.65
2022-10-17T21:11:46.164Z,15.65
2022-10-17T21:14:12.958Z,15.63
2022-10-17T21:16:41.337Z,15.61
2022-10-17T21:19:08.194Z,15.60
2022-10-17T21:21:37.414Z,15.61
2022-10-17T21:24:12.501Z,15.62
2022-10-17T21:26:40.827Z,15.61
2022-10-17T21:29:08.278Z,15.60
2022-10-17T21:31:40.396Z,15.59
2022-10-17T21:34:13.437Z,15.58
2022-10-17T21:36:41.303Z,15.60
2022-10-17T21:41:40.520Z,15.59
2022-10-17T21:44:12.676Z,15.56
2022-10-17T21:46:39.512Z,15.56
2022-10-17T21:49:06.855Z,15.53
2022-10-17T21:51:33.681Z,15.55
2022-10-17T21:54:00.507Z,15.54
2022-10-17T21:56:29.905Z,15.54
2022-10-17T21:58:58.081Z,15.53
2022-10-17T22:01:27.965Z,15.51
2022-10-17T22:03:59.208Z,15.51
2022-10-17T22:06:44.770Z,15.50
2022-10-17T22:09:17.798Z,15.47
2022-10-17T22:11:47.130Z,15.46
2022-10-17T22:14:17.023Z,15.46
2022-10-17T22:16:45.405Z,15.44
2022-10-17T22:19:14.044Z,15.42
2022-10-17T22:21:41.050Z,15.42
2022-10-17T22:24:11.453Z,15.39
2022-10-17T22:26:38.607Z,15.36
2022-10-17T22:29:07.088Z,15.36
2022-10-17T22:31:34.243Z,15.34
2022-10-17T22:34:00.996Z,15.33
2022-10-17T22:36:27.850Z,15.31
2022-10-17T22:38:55.026Z,15.29
2022-10-17T22:41:21.788Z,15.26
2022-10-17T22:43:48.516Z,15.25
2022-10-17T22:46:17.002Z,15.25
2022-10-17T22:48:44.151Z,15.23
2022-10-17T22:51:11.828Z,15.21
2022-10-17T22:53:38.932Z,15.21
2022-10-17T22:56:11.130Z,15.20
2022-10-17T22:58:38.467Z,15.18
2022-10-17T23:01:07.225Z,15.15
2022-10-17T23:03:35.423Z,15.14
2022-10-17T23:06:02.627Z,15.12
2022-10-17T23:08:29.483Z,15.10
2022-10-17T23:10:56.283Z,15.09
2022-10-17T23:13:23.182Z,15.05
2022-10-17T23:15:54.779Z,15.04
2022-10-17T23:18:22.856Z,15.03
2022-10-17T23:20:50.330Z,15.00
2022-10-17T23:23:17.911Z,14.97
2022-10-17T23:25:45.045Z,14.96
2022-10-17T23:28:12.127Z,14.95
2022-10-17T23:30:39.842Z,14.95
2022-10-17T23:33:07.225Z,14.92
2022-10-17T23:35:34.565Z,14.91
2022-10-17T23:38:01.298Z,14.87
2022-10-17T23:40:28.216Z,14.83
2022-10-17T23:42:55.014Z,14.80
2022-10-17T23:45:21.895Z,14.80
2022-10-17T23:47:48.650Z,14.74
2022-10-17T23:50:16.437Z,14.71
2022-10-17T23:52:43.732Z,14.68
2022-10-17T23:55:11.056Z,14.66
2022-10-17T23:57:37.799Z,14.63
